Holstein, Nebraska
Current Conditions -  °F | °C
As of 3:53 PM on Monday 20 Oct 2014 (Local Time) from KHSI Reporting Station
Clear Clear  
Wind Chill: 73°   Ceiling: Unl
Heat Index: 73°   Visibility: 10mi
Dew Point: 37°   Wind: 3mph
Humidity: 27%   Direction: 140°SE
Pressure: 30.07"   Gusts: NA
Location:  40.47°N, 98.65°W
Report Text: KHSI 202053Z AUTO 14003KT 10SM CLR 23/03 A3007 RMK AO2 SLP176 T02280028 56015
Loading
Personal Weather Stations






























Interactive Weather Map
Tropical Storm Tracking
New forecast layout! Learn more

10-Day Weather Forecast

Advertisements
Track Severe Weather on mobile